createdAt,value
2022-12-22T00:00:19.037Z,39.7280
2022-12-22T00:01:21.374Z,39.7520
2022-12-22T00:02:23.790Z,39.7390
2022-12-22T00:03:26.139Z,39.7390
2022-12-22T00:04:26.216Z,39.7270
2022-12-22T00:05:28.560Z,39.7100
2022-12-22T00:06:31.065Z,39.7270
2022-12-22T00:07:33.320Z,39.7270
2022-12-22T00:08:33.534Z,39.7220
2022-12-22T00:09:35.915Z,39.7160
2022-12-22T00:10:38.351Z,39.6860
2022-12-22T00:11:40.777Z,39.6860
2022-12-22T00:12:40.987Z,39.6860
2022-12-22T00:13:43.373Z,39.6860
2022-12-22T00:14:45.748Z,39.6740
2022-12-22T00:15:50.234Z,39.7150
2022-12-22T00:16:05.294Z,39.7150
2022-12-22T00:17:07.791Z,39.7090
2022-12-22T00:18:10.032Z,39.7040
2022-12-22T00:19:12.415Z,39.6860
2022-12-22T00:20:18.515Z,39.7030
2022-12-22T00:21:14.953Z,39.6860
2022-12-22T00:22:17.296Z,39.6510
2022-12-22T00:23:19.625Z,39.6510
2022-12-22T00:24:22.027Z,39.6390
2022-12-22T00:25:24.374Z,39.6390
2022-12-22T00:26:24.534Z,39.6680
2022-12-22T00:27:26.930Z,39.6450
2022-12-22T00:28:29.225Z,39.6330
2022-12-22T00:29:31.582Z,39.6060
2022-12-22T00:30:34.012Z,39.5930
2022-12-22T00:31:34.131Z,39.5960
2022-12-22T00:32:36.578Z,39.6200
2022-12-22T00:33:38.808Z,39.6260
2022-12-22T00:34:41.141Z,39.6260
2022-12-22T00:35:43.485Z,39.6330
2022-12-22T00:36:45.840Z,39.6200
2022-12-22T00:38:44.226Z,39.6560
2022-12-22T00:39:46.402Z,39.6330
2022-12-22T00:40:48.636Z,39.6260
2022-12-22T00:41:50.856Z,39.6260
2022-12-22T00:42:53.104Z,39.6330
2022-12-22T00:43:55.453Z,39.6610
2022-12-22T00:44:57.675Z,39.6740
2022-12-22T00:46:00.092Z,39.6490
2022-12-22T00:47:02.254Z,39.6200
2022-12-22T00:48:02.417Z,39.6550
2022-12-22T00:49:04.826Z,39.6380
2022-12-22T00:50:07.008Z,39.6440
2022-12-22T00:51:09.327Z,39.6740
2022-12-22T00:52:11.688Z,39.6710
2022-12-22T00:53:11.905Z,39.6590
2022-12-22T00:54:14.286Z,39.6260
2022-12-22T00:55:16.638Z,39.6320
2022-12-22T00:56:18.979Z,39.6080
2022-12-22T00:57:21.346Z,39.6140
2022-12-22T00:58:21.548Z,39.6140
2022-12-22T00:59:24.014Z,39.5730
2022-12-22T01:00:26.258Z,39.6090
2022-12-22T01:01:28.759Z,39.6140
2022-12-22T01:02:31.318Z,39.6090
2022-12-22T01:03:31.406Z,39.6020
2022-12-22T01:04:33.768Z,39.6090
2022-12-22T01:05:36.021Z,39.6200
2022-12-22T01:06:38.321Z,39.6020
2022-12-22T01:07:38.525Z,39.5370
2022-12-22T01:08:40.838Z,39.5250
2022-12-22T01:09:43.181Z,39.5420
2022-12-22T01:10:45.527Z,39.5660
2022-12-22T01:11:47.877Z,39.6110
2022-12-22T01:12:50.267Z,39.6280
2022-12-22T01:13:52.638Z,39.6030
2022-12-22T01:14:55.067Z,39.5840
2022-12-22T01:15:57.437Z,39.5950
2022-12-22T01:16:57.646Z,39.5900
2022-12-22T01:18:00.037Z,39.5790
2022-12-22T01:19:02.415Z,39.5620
2022-12-22T01:20:04.823Z,39.5370
2022-12-22T01:21:52.379Z,39.6030
2022-12-22T01:22:54.630Z,39.5840
2022-12-22T01:23:56.969Z,39.5480
2022-12-22T01:24:59.344Z,39.5370
2022-12-22T01:25:59.599Z,39.5420
2022-12-22T01:27:01.986Z,39.4860
2022-12-22T01:28:04.355Z,39.4800
2022-12-22T01:29:06.764Z,39.5020
2022-12-22T01:30:07.003Z,39.5310
2022-12-22T01:31:43.966Z,39.6330
2022-12-22T01:32:44.120Z,39.6310
2022-12-22T01:33:46.439Z,39.6030
2022-12-22T01:34:47.676Z,39.5820
2022-12-22T01:35:49.036Z,39.5930
2022-12-22T01:36:49.362Z,39.6210
2022-12-22T01:37:51.652Z,39.5930
2022-12-22T01:38:53.994Z,39.5900
2022-12-22T01:39:56.356Z,39.5820
2022-12-22T01:40:56.555Z,39.5900
2022-12-22T01:41:58.953Z,39.5370
2022-12-22T01:43:01.279Z,39.5420
2022-12-22T01:44:03.669Z,39.5310
2022-12-22T01:45:06.034Z,39.5430
2022-12-22T01:46:06.380Z,39.5080
2022-12-22T01:47:08.672Z,39.5250
2022-12-22T01:48:11.020Z,39.5370
2022-12-22T01:49:13.408Z,39.5420
2022-12-22T01:50:13.638Z,39.4960
2022-12-22T01:51:16.027Z,39.4900
2022-12-22T01:52:18.432Z,39.5130
2022-12-22T01:53:20.818Z,39.4960
2022-12-22T01:54:23.195Z,39.5130
2022-12-22T01:55:23.452Z,39.5310
2022-12-22T01:56:25.881Z,39.5250
2022-12-22T01:57:28.324Z,39.5250
2022-12-22T01:58:30.677Z,39.5550
2022-12-22T01:59:00.824Z,39.5550
2022-12-22T02:00:03.309Z,39.5430
2022-12-22T02:01:05.671Z,39.5490
2022-12-22T02:02:05.893Z,39.5310
2022-12-22T02:03:08.180Z,39.5430
2022-12-22T02:04:10.535Z,39.5310
2022-12-22T02:05:12.967Z,39.5020
2022-12-22T02:06:13.247Z,39.4960
2022-12-22T02:07:15.664Z,39.5180
2022-12-22T02:08:18.194Z,39.5250
2022-12-22T02:09:20.498Z,39.5310
2022-12-22T02:10:20.687Z,39.5490
2022-12-22T02:11:22.974Z,39.5600
2022-12-22T02:12:25.299Z,39.5430
2022-12-22T02:13:27.675Z,39.5250
2022-12-22T02:14:30.611Z,39.5020
2022-12-22T02:15:30.207Z,39.4770
2022-12-22T02:16:32.632Z,39.4770
2022-12-22T02:17:34.875Z,39.4900
2022-12-22T02:18:37.247Z,39.5120
2022-12-22T02:19:39.542Z,39.5250
2022-12-22T02:20:39.710Z,39.5280
2022-12-22T02:21:42.062Z,39.5400
2022-12-22T02:22:44.390Z,39.5450
2022-12-22T02:23:46.810Z,39.5250
2022-12-22T02:24:49.220Z,39.5180
2022-12-22T02:25:49.438Z,39.5250
2022-12-22T02:26:51.842Z,39.4530
2022-12-22T02:27:54.267Z,39.4900
2022-12-22T02:28:56.737Z,39.4890
2022-12-22T02:29:56.915Z,39.5280
2022-12-22T02:30:59.391Z,39.5250
2022-12-22T02:32:01.732Z,39.5280
2022-12-22T02:33:09.546Z,39.5340
2022-12-22T02:34:06.629Z,39.5650
2022-12-22T02:35:06.875Z,39.5610
2022-12-22T02:36:07.151Z,39.5400
2022-12-22T02:37:07.426Z,39.5370
2022-12-22T02:38:09.861Z,39.5060
2022-12-22T02:39:10.163Z,39.5060
2022-12-22T02:40:12.587Z,39.5120
2022-12-22T02:41:14.987Z,39.5120
2022-12-22T02:42:17.373Z,39.4950
2022-12-22T02:43:17.615Z,39.5340
2022-12-22T02:44:20.021Z,39.5430
2022-12-22T02:45:22.401Z,39.5280
2022-12-22T02:46:24.849Z,39.5000
2022-12-22T02:47:25.060Z,39.5040
2022-12-22T02:48:27.518Z,39.5280
2022-12-22T02:49:29.951Z,39.5320
2022-12-22T02:50:32.277Z,39.5450
2022-12-22T02:51:32.480Z,39.5060
2022-12-22T02:52:34.857Z,39.4950
2022-12-22T02:53:37.236Z,39.4890
2022-12-22T02:54:39.600Z,39.4950
2022-12-22T02:55:41.952Z,39.5060
2022-12-22T02:56:42.130Z,39.5160
2022-12-22T02:57:44.507Z,39.4890
2022-12-22T02:58:46.847Z,39.4950
2022-12-22T02:59:49.196Z,39.4710
2022-12-22T03:00:49.434Z,39.4950
2022-12-22T03:01:52.077Z,39.4770
2022-12-22T03:02:54.515Z,39.4770
2022-12-22T03:03:56.765Z,39.4710
2022-12-22T03:04:59.010Z,39.4950
2022-12-22T03:05:59.201Z,39.4830
2022-12-22T03:06:22.983Z,39.4770
2022-12-22T03:07:24.158Z,39.4770
2022-12-22T03:08:25.565Z,39.4710
2022-12-22T03:09:27.827Z,39.4950
2022-12-22T03:10:30.173Z,39.4830
2022-12-22T03:11:32.544Z,39.4870
2022-12-22T03:12:32.743Z,39.4890
2022-12-22T03:13:35.130Z,39.4360
2022-12-22T03:14:37.497Z,39.4050
2022-12-22T03:15:37.800Z,39.4350
2022-12-22T03:16:40.279Z,39.4600
2022-12-22T03:17:42.591Z,39.4600
2022-12-22T03:18:44.948Z,39.4470
2022-12-22T03:19:45.173Z,39.4410
2022-12-22T03:20:47.556Z,39.4050
2022-12-22T03:21:49.899Z,39.4180
2022-12-22T03:22:52.259Z,39.4410
2022-12-22T03:23:54.615Z,39.4470
2022-12-22T03:24:54.824Z,39.4290
2022-12-22T03:27:14.728Z,39.4990
2022-12-22T03:28:16.936Z,39.4350
2022-12-22T03:29:19.253Z,39.4300
2022-12-22T03:30:19.478Z,39.4050
2022-12-22T03:31:21.861Z,39.4230
2022-12-22T03:32:24.187Z,39.4560
2022-12-22T03:33:26.557Z,39.4470
2022-12-22T03:34:28.953Z,39.4050
2022-12-22T03:35:29.218Z,39.3220
2022-12-22T03:36:31.625Z,39.3330
2022-12-22T03:37:35.869Z,39.3220
2022-12-22T03:38:34.311Z,39.3470
2022-12-22T03:39:36.743Z,39.4000
2022-12-22T03:40:39.059Z,39.3990
2022-12-22T03:41:41.452Z,39.3820
2022-12-22T03:42:43.880Z,39.3700
2022-12-22T03:43:44.042Z,39.3640
2022-12-22T03:44:46.385Z,39.4060
2022-12-22T03:45:48.747Z,39.4170
2022-12-22T03:46:51.199Z,39.4170
2022-12-22T03:47:53.506Z,39.4230
2022-12-22T03:48:53.640Z,39.3880
2022-12-22T03:49:55.974Z,39.3760
2022-12-22T03:50:58.304Z,39.3880
2022-12-22T03:52:00.656Z,39.4230
2022-12-22T03:53:03.028Z,39.4600
2022-12-22T03:54:03.201Z,39.4660
2022-12-22T03:55:05.554Z,39.5040
2022-12-22T03:56:08.283Z,39.5400
2022-12-22T03:57:10.218Z,39.5250
2022-12-22T03:58:12.631Z,39.5120
2022-12-22T03:59:12.778Z,39.5080
2022-12-22T04:00:15.148Z,39.5370
2022-12-22T04:01:17.551Z,39.5590
2022-12-22T04:02:20.025Z,39.5880
2022-12-22T04:03:22.438Z,39.6030
2022-12-22T04:04:24.555Z,39.6360
2022-12-22T04:05:26.892Z,39.6500
2022-12-22T04:06:29.255Z,39.6420
2022-12-22T04:07:31.618Z,39.6560
2022-12-22T04:08:31.792Z,39.6810
2022-12-22T04:09:34.075Z,39.7020
2022-12-22T04:10:36.418Z,39.7080
2022-12-22T04:11:38.745Z,39.6980
2022-12-22T04:12:41.117Z,39.7220
2022-12-22T04:13:41.387Z,39.7470
2022-12-22T04:14:43.639Z,39.7640
2022-12-22T04:15:45.985Z,39.7470
2022-12-22T04:16:48.383Z,39.7470
2022-12-22T04:17:50.603Z,39.7220
2022-12-22T04:18:52.935Z,39.7130
2022-12-22T04:19:53.122Z,39.7190
2022-12-22T04:20:55.510Z,39.7760
2022-12-22T04:21:57.934Z,39.7640
2022-12-22T04:23:00.379Z,39.7740
2022-12-22T04:24:00.665Z,39.8210
2022-12-22T04:25:03.057Z,39.8150
2022-12-22T04:26:05.468Z,39.8090
2022-12-22T04:27:07.905Z,39.8630
2022-12-22T04:28:08.132Z,39.8860
2022-12-22T04:29:10.580Z,39.8710
2022-12-22T04:30:12.943Z,39.9140
2022-12-22T04:31:15.401Z,39.9230
2022-12-22T04:32:15.786Z,39.9400
2022-12-22T04:33:18.144Z,39.9490
2022-12-22T04:34:20.596Z,39.9790
2022-12-22T04:35:20.856Z,39.9970
2022-12-22T04:36:23.297Z,39.9680
2022-12-22T04:37:25.760Z,39.9910
2022-12-22T04:38:28.147Z,39.9730
2022-12-22T04:39:28.484Z,39.9540
2022-12-22T04:40:30.895Z,39.9750
2022-12-22T04:41:31.218Z,39.9580
2022-12-22T04:42:33.634Z,39.9790
2022-12-22T04:43:36.099Z,39.9840
2022-12-22T04:44:36.439Z,40.0060
2022-12-22T04:45:38.868Z,40.0570
2022-12-22T04:46:41.224Z,40.0350
2022-12-22T04:47:43.632Z,40.0780
2022-12-22T04:48:45.967Z,40.0620
2022-12-22T04:49:46.185Z,40.0800
2022-12-22T04:50:48.555Z,40.1130
2022-12-22T04:51:50.924Z,40.1130
2022-12-22T04:52:53.275Z,40.1110
2022-12-22T04:53:53.508Z,40.0740
2022-12-22T04:54:55.934Z,40.0800
2022-12-22T04:55:58.278Z,40.0800
2022-12-22T04:57:00.613Z,40.0500
2022-12-22T04:58:02.973Z,40.0090
2022-12-22T04:59:03.255Z,40.1030
2022-12-22T05:00:05.761Z,40.0740
2022-12-22T05:01:08.108Z,40.1030
2022-12-22T05:02:10.681Z,40.1250
2022-12-22T05:03:10.851Z,40.1550
2022-12-22T05:04:15.242Z,40.1640
2022-12-22T05:05:15.694Z,40.2180
2022-12-22T05:06:15.948Z,40.2020
2022-12-22T05:07:18.363Z,40.1900
2022-12-22T05:08:20.798Z,40.1850
2022-12-22T05:09:23.216Z,40.2410
2022-12-22T05:10:23.530Z,40.1940
2022-12-22T05:11:25.910Z,40.1750
2022-12-22T05:12:28.319Z,40.2350
2022-12-22T05:13:28.557Z,40.2530
2022-12-22T05:14:30.964Z,40.3250
2022-12-22T05:15:33.409Z,40.3540
2022-12-22T05:16:35.900Z,40.3480
2022-12-22T05:17:36.053Z,40.3140
2022-12-22T05:18:36.357Z,40.2770
2022-12-22T05:19:38.791Z,40.3130
2022-12-22T05:20:41.270Z,40.4240
2022-12-22T05:21:43.661Z,40.4510
2022-12-22T05:22:46.110Z,40.4650
2022-12-22T05:23:48.475Z,40.5190
2022-12-22T05:24:48.743Z,40.4860
2022-12-22T05:25:51.197Z,40.4970
2022-12-22T05:26:53.546Z,40.5090
2022-12-22T05:27:55.918Z,40.5520
2022-12-22T05:28:56.163Z,40.5690
2022-12-22T05:29:58.561Z,40.5480
2022-12-22T05:31:01.116Z,40.5240
2022-12-22T05:32:03.345Z,40.6080
2022-12-22T05:33:03.575Z,40.6200
2022-12-22T05:34:05.927Z,40.6190
2022-12-22T05:35:08.352Z,40.5190
2022-12-22T05:36:10.836Z,40.5590
2022-12-22T05:37:11.089Z,40.6300
2022-12-22T05:38:13.504Z,40.6590
2022-12-22T05:39:15.941Z,40.6570
2022-12-22T05:40:18.314Z,40.6530
2022-12-22T05:41:18.671Z,40.6140
2022-12-22T05:42:20.948Z,40.6040
2022-12-22T05:43:23.366Z,40.6690
2022-12-22T05:44:25.810Z,40.6350
2022-12-22T05:45:26.035Z,40.6410
2022-12-22T05:46:28.564Z,40.5900
2022-12-22T05:47:30.844Z,40.6410
2022-12-22T05:48:38.002Z,40.5900
2022-12-22T05:49:33.498Z,40.6370
2022-12-22T05:50:35.895Z,40.6200
2022-12-22T05:51:38.436Z,40.6250
2022-12-22T05:52:40.696Z,40.4620
2022-12-22T05:53:40.958Z,40.3630
2022-12-22T05:54:43.358Z,40.3550
2022-12-22T05:55:45.755Z,40.4120
2022-12-22T05:56:48.160Z,40.4490
2022-12-22T05:57:48.386Z,40.5360
2022-12-22T05:58:50.756Z,40.5710
2022-12-22T05:59:51.022Z,40.5830
2022-12-22T06:00:51.262Z,40.5960
2022-12-22T06:01:53.852Z,40.6020
2022-12-22T06:02:56.263Z,40.5930
2022-12-22T06:04:00.333Z,40.5990
2022-12-22T06:04:58.874Z,40.6650
2022-12-22T06:06:01.347Z,40.6710
2022-12-22T06:07:02.144Z,40.6900
2022-12-22T06:08:04.073Z,40.6980
2022-12-22T06:09:06.476Z,40.7190
2022-12-22T06:10:11.613Z,40.6960
2022-12-22T06:11:09.200Z,40.7590
2022-12-22T06:12:11.671Z,40.7240
2022-12-22T06:13:14.092Z,40.7180
2022-12-22T06:14:14.371Z,40.6960
2022-12-22T06:15:16.800Z,40.7020
2022-12-22T06:16:19.259Z,40.6960
2022-12-22T06:17:19.609Z,40.6900
2022-12-22T06:18:21.895Z,40.7230
2022-12-22T06:19:24.311Z,40.7040
2022-12-22T06:20:26.734Z,40.6770
2022-12-22T06:21:26.988Z,40.7100
2022-12-22T06:22:29.439Z,40.6900
2022-12-22T06:23:31.853Z,40.6980
2022-12-22T06:24:34.239Z,40.7040
2022-12-22T06:25:34.494Z,40.7040
2022-12-22T06:26:36.860Z,40.7180
2022-12-22T06:27:39.230Z,40.7040
2022-12-22T06:28:41.635Z,40.7260
2022-12-22T06:29:41.872Z,40.6910
2022-12-22T06:30:44.282Z,40.6970
2022-12-22T06:31:46.763Z,40.6980
2022-12-22T06:32:49.129Z,40.6630
2022-12-22T06:33:49.342Z,40.6850
2022-12-22T06:34:51.754Z,40.6810
2022-12-22T06:35:59.163Z,40.6570
2022-12-22T06:36:56.555Z,40.6690
2022-12-22T06:37:56.782Z,40.6570
2022-12-22T06:38:59.119Z,40.6850
2022-12-22T06:40:01.406Z,40.6630
2022-12-22T06:41:04.119Z,40.6520
2022-12-22T06:42:06.158Z,40.6480
2022-12-22T06:43:09.571Z,40.6420
2022-12-22T06:44:10.832Z,40.6850
2022-12-22T06:45:13.232Z,40.6660
2022-12-22T06:46:15.655Z,40.6360
2022-12-22T06:47:15.795Z,40.6430
2022-12-22T06:48:18.248Z,40.6780
2022-12-22T06:49:20.610Z,40.6550
2022-12-22T06:50:23.054Z,40.6070
2022-12-22T06:51:23.368Z,40.6360
2022-12-22T06:52:25.786Z,40.5700
2022-12-22T06:53:28.272Z,40.5530
2022-12-22T06:54:28.523Z,40.5530
2022-12-22T06:55:30.977Z,40.5530
2022-12-22T06:56:33.402Z,40.5470
2022-12-22T06:57:35.860Z,40.5350
2022-12-22T06:58:36.282Z,40.5640
2022-12-22T06:59:38.626Z,40.6120
2022-12-22T07:00:41.058Z,40.5930
2022-12-22T07:01:41.457Z,40.5760
2022-12-22T07:02:43.923Z,40.5700
2022-12-22T07:03:46.323Z,40.5700
2022-12-22T07:04:46.480Z,40.4820
2022-12-22T07:05:48.925Z,40.4350
2022-12-22T07:06:51.345Z,40.4800
2022-12-22T07:07:53.849Z,40.4700
2022-12-22T07:08:54.104Z,40.5030
2022-12-22T07:09:56.498Z,40.4880
2022-12-22T07:10:58.913Z,40.4800
2022-12-22T07:12:01.300Z,40.4600
2022-12-22T07:13:01.592Z,40.5270
2022-12-22T07:14:04.050Z,40.5130
2022-12-22T07:15:06.439Z,40.5130
2022-12-22T07:16:08.937Z,40.5470
2022-12-22T07:17:09.168Z,40.5410
2022-12-22T07:18:11.601Z,40.5470
2022-12-22T07:19:14.158Z,40.5350
2022-12-22T07:20:14.220Z,40.5700
2022-12-22T07:21:16.631Z,40.5880
2022-12-22T07:22:21.701Z,40.5410
2022-12-22T07:23:21.344Z,40.5940
2022-12-22T07:24:21.613Z,40.5530
2022-12-22T07:25:23.989Z,40.5410
2022-12-22T07:26:26.423Z,40.5890
2022-12-22T07:27:26.734Z,40.5710
2022-12-22T07:28:29.171Z,40.5710
2022-12-22T07:29:31.569Z,40.5580
2022-12-22T07:30:33.949Z,40.5460
2022-12-22T07:31:34.310Z,40.5460
2022-12-22T07:32:36.622Z,40.5160
2022-12-22T07:33:39.023Z,40.4990
2022-12-22T07:34:41.482Z,40.4860
2022-12-22T07:35:41.708Z,40.5050
2022-12-22T07:36:44.081Z,40.4860
2022-12-22T07:37:46.482Z,40.4500
2022-12-22T07:38:48.868Z,40.4570
2022-12-22T07:39:49.137Z,40.4320
2022-12-22T07:40:52.388Z,40.4090
2022-12-22T07:41:53.909Z,40.4500
2022-12-22T07:42:56.298Z,40.3970
2022-12-22T07:43:56.560Z,40.3660
2022-12-22T07:44:58.979Z,40.3720
2022-12-22T07:46:01.480Z,40.3790
2022-12-22T07:47:03.852Z,40.3720
2022-12-22T07:48:04.011Z,40.3370
2022-12-22T07:49:06.422Z,40.3610
2022-12-22T07:50:09.082Z,40.3670
2022-12-22T07:51:11.215Z,40.3610
2022-12-22T07:52:11.485Z,40.3190
2022-12-22T07:53:13.841Z,40.2820
2022-12-22T07:54:16.197Z,40.2710
2022-12-22T07:55:18.613Z,40.2710
2022-12-22T07:56:20.989Z,40.2480
2022-12-22T07:57:21.237Z,40.2530
2022-12-22T07:58:23.599Z,40.2480
2022-12-22T07:59:25.979Z,40.2050
2022-12-22T08:00:26.453Z,40.2170
2022-12-22T08:01:28.687Z,40.1930
2022-12-22T08:02:36.876Z,40.1990
2022-12-22T08:05:23.183Z,40.3170
2022-12-22T08:06:25.480Z,40.2520
2022-12-22T08:07:27.797Z,40.2290
2022-12-22T08:08:30.159Z,40.1640
2022-12-22T08:09:32.473Z,40.1450
2022-12-22T08:10:32.686Z,40.1190
2022-12-22T08:11:35.101Z,40.0940
2022-12-22T08:12:37.488Z,40.1040
2022-12-22T08:13:39.775Z,40.0860
2022-12-22T08:14:42.192Z,40.0550
2022-12-22T08:15:42.445Z,40.0610
2022-12-22T08:16:45.000Z,40.0530
2022-12-22T08:17:47.256Z,40.0250
2022-12-22T08:18:49.689Z,40.0200
2022-12-22T08:19:49.932Z,40.0060
2022-12-22T08:20:52.390Z,40.0000
2022-12-22T08:21:54.902Z,40.0070
2022-12-22T08:22:57.188Z,39.9650
2022-12-22T08:23:57.412Z,39.9540
2022-12-22T08:24:59.848Z,39.9710
2022-12-22T08:26:02.171Z,39.9480
2022-12-22T08:27:05.550Z,39.9480
2022-12-22T08:28:04.776Z,39.8900
2022-12-22T08:29:07.115Z,39.9500
2022-12-22T08:30:09.490Z,39.8370
2022-12-22T08:31:11.948Z,39.5970
2022-12-22T08:32:12.196Z,39.3350
2022-12-22T08:33:14.554Z,39.5900
2022-12-22T08:34:16.943Z,39.4220
2022-12-22T08:35:19.354Z,39.2300
2022-12-22T08:36:19.640Z,39.3640
2022-12-22T08:37:22.064Z,39.2620
2022-12-22T08:38:24.429Z,39.0640
2022-12-22T08:39:26.805Z,39.1000
2022-12-22T08:40:26.990Z,38.9970
2022-12-22T08:41:29.310Z,39.0320
2022-12-22T08:42:31.762Z,39.1870
2022-12-22T08:43:33.894Z,38.9960
2022-12-22T08:44:36.178Z,38.8430
2022-12-22T08:45:38.494Z,38.9810
2022-12-22T08:46:38.701Z,38.8440
2022-12-22T08:47:40.955Z,38.7200
2022-12-22T08:48:43.255Z,38.6890
2022-12-22T08:49:45.531Z,38.6660
2022-12-22T08:50:47.828Z,38.6180
2022-12-22T08:51:50.179Z,38.7300
2022-12-22T08:52:50.363Z,38.9360
2022-12-22T08:54:07.791Z,39.0580
2022-12-22T08:54:54.954Z,39.2250
2022-12-22T08:55:57.310Z,39.2250
2022-12-22T08:56:59.660Z,39.2720
2022-12-22T08:58:03.047Z,39.3910
2022-12-22T08:59:02.241Z,39.4110
2022-12-22T09:00:04.593Z,39.2270
2022-12-22T09:01:07.016Z,39.2890
2022-12-22T09:02:09.381Z,39.4030
2022-12-22T09:03:11.729Z,39.3880
2022-12-22T09:04:11.827Z,39.4510
2022-12-22T09:05:14.096Z,39.5320
2022-12-22T09:06:16.399Z,39.5320
2022-12-22T09:07:18.765Z,39.5380
2022-12-22T09:08:19.045Z,39.5490
2022-12-22T09:09:19.212Z,39.5380
2022-12-22T09:10:21.719Z,39.5230
2022-12-22T09:11:24.086Z,39.5590
2022-12-22T09:12:26.521Z,39.5530
2022-12-22T09:13:26.848Z,39.5590
2022-12-22T09:14:29.221Z,39.5710
2022-12-22T09:15:31.592Z,39.5920
2022-12-22T09:16:34.145Z,39.5710
2022-12-22T09:17:34.315Z,39.5770
2022-12-22T09:18:36.784Z,39.5810
2022-12-22T09:19:39.331Z,39.5860
2022-12-22T09:20:41.587Z,39.5730
2022-12-22T09:21:44.000Z,39.5670
2022-12-22T09:22:46.440Z,39.5480
2022-12-22T09:23:46.728Z,39.5620
2022-12-22T09:24:49.067Z,39.5290
2022-12-22T09:25:51.422Z,39.5210
2022-12-22T09:26:53.783Z,39.5320
2022-12-22T09:27:54.008Z,39.5110
2022-12-22T09:28:58.152Z,39.4990
2022-12-22T09:29:58.823Z,39.5010
2022-12-22T09:31:01.261Z,39.4430
2022-12-22T09:32:01.529Z,39.4450
2022-12-22T09:33:03.893Z,39.4120
2022-12-22T09:34:09.542Z,39.4430
2022-12-22T09:35:08.678Z,39.4300
2022-12-22T09:36:08.919Z,39.4340
2022-12-22T09:37:11.378Z,39.4300
2022-12-22T09:38:13.824Z,39.4820
2022-12-22T09:39:16.079Z,39.4900
2022-12-22T09:40:16.505Z,39.4790
2022-12-22T09:41:18.931Z,39.4450
2022-12-22T09:42:21.334Z,39.4100
2022-12-22T09:43:21.596Z,39.4120
2022-12-22T09:44:23.995Z,39.3970
2022-12-22T09:45:26.412Z,39.3830
2022-12-22T09:46:28.892Z,39.3620
2022-12-22T09:47:29.047Z,39.3380
2022-12-22T09:48:31.385Z,39.3440
2022-12-22T09:51:04.250Z,39.4160
2022-12-22T09:52:06.498Z,39.3640
2022-12-22T09:53:08.860Z,39.3380
2022-12-22T09:54:11.251Z,39.3020
2022-12-22T09:55:13.588Z,39.3130
2022-12-22T09:56:13.982Z,39.2650
2022-12-22T09:57:16.160Z,39.2590
2022-12-22T09:58:25.763Z,39.2510
2022-12-22T09:59:20.909Z,39.3080
2022-12-22T10:00:21.067Z,39.2620
2022-12-22T10:01:23.463Z,39.2100
2022-12-22T10:02:25.796Z,39.2040
2022-12-22T10:03:28.090Z,39.2240
2022-12-22T10:04:30.325Z,39.1070
2022-12-22T10:05:32.570Z,39.0200
2022-12-22T10:06:32.762Z,38.9930
2022-12-22T10:07:35.026Z,38.9690
2022-12-22T10:08:37.371Z,39.0090
2022-12-22T10:09:50.867Z,38.9660
2022-12-22T10:10:42.018Z,39.0060
2022-12-22T10:11:44.465Z,39.0180
2022-12-22T10:12:44.500Z,38.9600
2022-12-22T10:13:46.856Z,38.8610
2022-12-22T10:14:49.238Z,38.7440
2022-12-22T10:15:51.605Z,38.6250
2022-12-22T10:16:54.167Z,38.6660
2022-12-22T10:17:54.234Z,38.6180
2022-12-22T10:18:56.598Z,38.5270
2022-12-22T10:19:58.951Z,38.5160
2022-12-22T10:21:01.333Z,38.4990
2022-12-22T10:22:01.652Z,38.4710
2022-12-22T10:23:03.808Z,38.3510
2022-12-22T10:24:06.087Z,38.2310
2022-12-22T10:25:08.431Z,38.1250
2022-12-22T10:26:28.759Z,38.1520
2022-12-22T10:27:10.907Z,38.3220
2022-12-22T10:28:13.168Z,38.3230
2022-12-22T10:29:15.476Z,38.1820
2022-12-22T10:30:17.896Z,38.0890
2022-12-22T10:31:20.338Z,37.8940
2022-12-22T10:32:20.319Z,38.1140
2022-12-22T10:33:22.523Z,38.2090
2022-12-22T10:34:24.742Z,38.1830
2022-12-22T10:35:27.000Z,38.2300
2022-12-22T10:36:29.229Z,38.2030
2022-12-22T10:37:31.440Z,38.2300
2022-12-22T10:38:33.629Z,38.3320
2022-12-22T10:39:35.880Z,38.2720
2022-12-22T10:40:38.134Z,38.1960
2022-12-22T10:41:40.374Z,38.2440
2022-12-22T10:42:40.472Z,38.0390
2022-12-22T10:43:42.658Z,38.0250
2022-12-22T10:44:44.876Z,38.1100
2022-12-22T10:45:47.149Z,38.1590
2022-12-22T10:46:49.414Z,38.1460
2022-12-22T10:47:51.842Z,38.2490
2022-12-22T10:48:54.056Z,38.2160
2022-12-22T10:50:56.577Z,38.2550
2022-12-22T10:50:56.577Z,38.3380
2022-12-22T10:51:58.912Z,38.3490
2022-12-22T10:53:01.347Z,38.3150
2022-12-22T10:54:03.703Z,38.2400
2022-12-22T10:55:06.054Z,38.2250
2022-12-22T10:56:06.305Z,38.1760
2022-12-22T10:57:08.601Z,38.0120
2022-12-22T10:58:11.024Z,38.1730
2022-12-22T10:59:13.369Z,38.3430
2022-12-22T11:00:13.662Z,38.3260
2022-12-22T11:01:16.092Z,38.1550
2022-12-22T11:02:18.584Z,38.3060
2022-12-22T11:03:24.630Z,38.4410
2022-12-22T11:04:20.945Z,38.5310
2022-12-22T11:05:23.319Z,38.4470
2022-12-22T11:06:25.623Z,38.4760
2022-12-22T11:07:27.973Z,38.5420
2022-12-22T11:08:28.225Z,38.5200
2022-12-22T11:09:34.971Z,38.4180
2022-12-22T11:10:32.818Z,38.3410
2022-12-22T11:11:35.141Z,38.1930
2022-12-22T11:12:37.454Z,38.1980
2022-12-22T11:13:39.766Z,38.0780
2022-12-22T11:14:39.957Z,37.9550
2022-12-22T11:15:42.336Z,37.8100
2022-12-22T11:16:44.802Z,37.8340
2022-12-22T11:17:47.092Z,37.9080
2022-12-22T11:18:47.366Z,37.9150
2022-12-22T11:19:49.710Z,38.0040
2022-12-22T11:20:52.095Z,37.9760
2022-12-22T11:21:54.466Z,37.9360
2022-12-22T11:22:56.840Z,37.9220
2022-12-22T11:23:57.108Z,37.8940
2022-12-22T11:24:59.461Z,37.9310
2022-12-22T11:26:01.834Z,38.0240
2022-12-22T11:27:04.231Z,38.0410
2022-12-22T11:28:04.428Z,38.1010
2022-12-22T11:29:06.793Z,38.1450
2022-12-22T11:30:09.118Z,38.1960
2022-12-22T11:31:11.527Z,38.2810
2022-12-22T11:32:13.751Z,38.3250
2022-12-22T11:33:13.901Z,38.3540
2022-12-22T11:34:20.988Z,38.3430
2022-12-22T11:35:16.427Z,38.3430
2022-12-22T11:36:18.719Z,38.3430
2022-12-22T11:37:21.047Z,38.3210
2022-12-22T11:38:23.355Z,38.2920
2022-12-22T11:39:23.600Z,38.2170
2022-12-22T11:40:25.886Z,38.1310
2022-12-22T11:41:28.213Z,38.1520
2022-12-22T11:42:30.551Z,38.1340
2022-12-22T11:43:32.840Z,38.1450
2022-12-22T11:44:35.159Z,38.1390
2022-12-22T11:45:42.964Z,38.1390
2022-12-22T11:46:39.722Z,38.1740
2022-12-22T11:47:41.888Z,38.1120
2022-12-22T11:48:44.157Z,38.1250
2022-12-22T11:49:46.549Z,38.0830
2022-12-22T11:51:09.245Z,38.0940
2022-12-22T11:51:48.988Z,38.1590
2022-12-22T11:52:51.322Z,38.1380
2022-12-22T11:53:53.685Z,38.0600
2022-12-22T11:54:56.079Z,38.0140
2022-12-22T11:55:58.429Z,38.0090
2022-12-22T11:56:58.644Z,38.0300
2022-12-22T11:58:01.054Z,38.1120
2022-12-22T11:59:03.424Z,38.1310
2022-12-22T12:00:05.871Z,38.1200
2022-12-22T12:01:19.067Z,38.1490
2022-12-22T12:02:08.437Z,38.1250
2022-12-22T12:03:10.830Z,38.1490
2022-12-22T12:04:13.184Z,38.1490
2022-12-22T12:05:13.377Z,38.1100
2022-12-22T12:06:15.729Z,38.0850
2022-12-22T12:07:23.581Z,38.1060
2022-12-22T12:08:20.449Z,38.0670
2022-12-22T12:09:21.676Z,38.0650
2022-12-22T12:10:21.898Z,38.2090
2022-12-22T12:11:23.193Z,38.2780
2022-12-22T12:12:25.553Z,38.1810
2022-12-22T12:13:34.834Z,38.0370
2022-12-22T12:14:30.138Z,37.9620
2022-12-22T12:15:32.460Z,37.9500
2022-12-22T12:16:34.834Z,38.0010
2022-12-22T12:17:34.871Z,38.0380
2022-12-22T12:18:37.213Z,37.9470
2022-12-22T12:19:39.501Z,37.7800
2022-12-22T12:20:41.831Z,37.7030
2022-12-22T12:21:44.197Z,37.6690
2022-12-22T12:22:46.453Z,37.5960
2022-12-22T12:23:46.614Z,37.6020
2022-12-22T12:24:48.936Z,37.6210
2022-12-22T12:25:51.270Z,37.6330
2022-12-22T12:26:53.575Z,37.6330
2022-12-22T12:27:55.883Z,37.6020
2022-12-22T12:28:56.088Z,37.5960
2022-12-22T12:30:35.804Z,37.6150
2022-12-22T12:31:00.788Z,37.6660
2022-12-22T12:32:03.150Z,37.6290
2022-12-22T12:33:05.298Z,37.6390